Time;durP1;ratioP1;P1;durP2;ratioP2;P2;SDS_P1;SDS_P2;PMS_P1;PMS_P2;Temp;Humidity;BMP_temperature;BMP_pressure;BME280_temperature;BME280_humidity;BME280_pressure;Samples;Min_cycle;Max_cycle;Signal;HPM_P1;HPM_P2
2022/11/05 03:49:14;;;;;;;10.23;2.95;;;4.90;99.90;;;;;;4252068;24;20030;-96
2022/11/05 03:51:52;;;;;;;9.65;2.90;;;5.30;99.90;;;;;;4751343;30;20071;-96
2022/11/05 03:54:22;;;;;;;12.70;2.88;;;5.70;99.90;;;;;;4754818;30;20080;-96
2022/11/05 03:57:13;;;;;;;7.90;2.25;;;6.40;99.90;;;;;;4729642;30;20151;-96
2022/11/05 04:02:40;;;;;;;9.77;2.80;;;5.60;99.90;;;;;;4770899;30;20060;-96
2022/11/05 04:05:09;;;;;;;11.35;2.53;;;5.90;99.90;;;;;;4755124;30;20094;-97
2022/11/05 04:13:23;;;;;;;13.20;3.03;;;6.20;99.90;;;;;;4759761;30;20052;-96
2022/11/05 04:17:08;;;;;;;10.32;2.60;;;5.90;99.90;;;;;;4743865;30;20043;-96
2022/11/05 04:18:58;;;;;;;8.60;2.72;;;6.40;99.90;;;;;;4765231;30;20593;-96
2022/11/05 04:24:21;;;;;;;11.45;3.30;;;7.40;99.90;;;;;;4771067;30;20052;-96
2022/11/05 04:27:01;;;;;;;8.38;3.05;;;6.40;99.90;;;;;;4757819;30;20083;-96
2022/11/05 04:32:56;;;;;;;10.43;2.90;;;6.60;99.90;;;;;;4760416;30;20094;-96
2022/11/05 04:35:22;;;;;;;12.68;3.17;;;6.50;99.90;;;;;;4744052;30;20076;-96
2022/11/05 04:37:48;;;;;;;8.98;2.80;;;7.60;99.90;;;;;;4743598;30;20513;-96
2022/11/05 04:40:14;;;;;;;12.10;2.78;;;7.20;99.90;;;;;;4745781;30;20052;-96
2022/11/05 04:42:41;;;;;;;13.40;2.40;;;7.20;99.90;;;;;;4746371;30;20493;-96
2022/11/05 04:45:08;;;;;;;12.73;2.95;;;6.70;99.90;;;;;;4747483;30;20063;-96
2022/11/05 04:47:33;;;;;;;9.82;2.92;;;7.00;99.90;;;;;;4732302;30;20056;-96
2022/11/05 04:50:00;;;;;;;10.52;3.15;;;7.10;99.90;;;;;;4748012;30;20059;-96
2022/11/05 04:52:32;;;;;;;12.90;3.60;;;6.70;99.90;;;;;;4730439;30;20109;-96
2022/11/05 04:55:00;;;;;;;9.70;2.80;;;7.10;99.90;;;;;;4730971;30;20095;-96
2022/11/05 04:57:26;;;;;;;8.98;3.55;;;6.50;99.90;;;;;;4745067;30;20048;-96
2022/11/05 04:59:53;;;;;;;11.43;3.10;;;6.60;99.90;;;;;;4743713;30;20098;-96
2022/11/05 05:02:21;;;;;;;11.55;3.25;;;6.50;99.90;;;;;;4744528;30;20052;-96
2022/11/05 05:04:47;;;;;;;12.25;3.60;;;6.40;99.90;;;;;;4745457;30;20470;-96
2022/11/05 05:07:13;;;;;;;16.30;4.35;;;6.20;99.90;;;;;;4757191;30;20457;-96
2022/11/05 05:09:39;;;;;;;13.20;3.92;;;6.80;99.90;;;;;;4743513;30;20052;-96
2022/11/05 05:12:05;;;;;;;15.00;4.40;;;6.40;99.90;;;;;;4743970;30;20094;-96
2022/11/05 05:14:32;;;;;;;15.40;4.55;;;6.40;99.90;;;;;;4746449;30;20139;-96
2022/11/05 05:17:03;;;;;;;13.20;4.28;;;6.60;99.90;;;;;;4748602;30;20147;-96
2022/11/05 05:21:37;;;;;;;10.25;4.80;;;6.00;99.90;;;;;;4737519;30;20070;-96
2022/11/05 05:22:20;;;;;;;18.42;5.20;;;6.50;99.90;;;;;;4747915;30;20052;-96
2022/11/05 05:24:47;;;;;;;9.57;5.35;;;6.20;99.90;;;;;;4748968;30;20087;-96
2022/11/05 05:27:13;;;;;;;12.07;5.50;;;6.40;99.90;;;;;;4733805;30;20157;-96
2022/11/05 05:29:40;;;;;;;15.38;5.88;;;6.80;99.90;;;;;;4746649;30;20051;-96
2022/11/05 05:32:07;;;;;;;13.02;5.68;;;6.10;99.90;;;;;;4733620;30;20465;-96
2022/11/05 05:34:33;;;;;;;13.38;5.75;;;6.00;99.90;;;;;;4744018;30;20071;-96
2022/11/05 05:36:59;;;;;;;15.70;6.60;;;6.20;99.90;;;;;;4744175;30;20056;-96
2022/11/05 05:39:27;;;;;;;13.13;5.93;;;6.40;99.90;;;;;;4747037;30;20048;-96
2022/11/05 05:41:54;;;;;;;11.60;5.10;;;6.20;99.90;;;;;;4745801;30;20068;-96
2022/11/05 05:44:21;;;;;;;16.35;6.18;;;6.00;99.90;;;;;;4745696;30;20067;-96
2022/11/05 05:46:47;;;;;;;13.30;5.03;;;6.00;99.90;;;;;;4743652;30;20064;-96
2022/11/05 05:49:16;;;;;;;15.70;5.70;;;6.20;99.90;;;;;;4740765;30;20086;-96
2022/11/05 05:51:47;;;;;;;11.82;5.80;;;6.00;99.90;;;;;;4742162;30;20111;-96
2022/11/05 05:54:13;;;;;;;15.80;5.28;;;6.30;99.90;;;;;;4757798;30;20109;-96
2022/11/05 05:56:39;;;;;;;19.25;6.93;;;5.90;99.90;;;;;;4729943;30;20055;-96
2022/11/05 05:59:05;;;;;;;15.57;5.40;;;6.40;99.90;;;;;;4740771;30;20048;-96
2022/11/05 06:01:31;;;;;;;16.02;6.00;;;5.40;99.90;;;;;;4745714;30;20110;-96
2022/11/05 06:03:58;;;;;;;14.80;5.82;;;5.70;99.90;;;;;;4734834;30;20142;-96
2022/11/05 06:06:24;;;;;;;14.50;6.28;;;5.40;99.90;;;;;;4745535;30;20063;-96
2022/11/05 06:08:50;;;;;;;10.13;6.70;;;4.80;99.90;;;;;;4759324;30;20052;-96
2022/11/05 06:11:16;;;;;;;15.52;5.95;;;6.20;99.90;;;;;;4750316;30;20040;-96
2022/11/05 06:13:44;;;;;;;12.68;5.57;;;5.20;99.90;;;;;;4728359;30;20455;-96
2022/11/05 06:16:10;;;;;;;12.68;6.43;;;5.80;99.90;;;;;;4750770;30;20052;-96
2022/11/05 06:18:36;;;;;;;20.20;7.45;;;5.60;99.90;;;;;;4733696;30;20529;-96
2022/11/05 06:21:09;;;;;;;13.68;7.70;;;5.70;99.90;;;;;;4732050;30;20048;-96
2022/11/05 06:23:36;;;;;;;16.70;8.13;;;5.80;99.90;;;;;;4731393;30;20135;-96
2022/11/05 06:26:07;;;;;;;16.38;8.00;;;5.90;99.90;;;;;;4733022;30;20049;-96
2022/11/05 06:28:33;;;;;;;15.38;6.10;;;5.90;99.90;;;;;;4742266;30;20060;-96
2022/11/05 06:31:00;;;;;;;13.07;6.22;;;5.40;99.90;;;;;;4766011;30;20043;-96
2022/11/05 06:33:26;;;;;;;12.68;6.47;;;5.60;99.90;;;;;;4739629;30;20116;-96
2022/11/05 06:35:53;;;;;;;13.85;5.53;;;6.30;99.90;;;;;;4745623;30;20052;-96
2022/11/05 06:38:19;;;;;;;13.93;5.60;;;6.60;99.90;;;;;;4746049;30;20059;-96
2022/11/05 06:40:45;;;;;;;12.65;6.05;;;5.80;99.90;;;;;;4759843;30;20055;-96
2022/11/05 06:43:15;;;;;;;13.75;5.80;;;6.40;99.90;;;;;;4746139;30;20124;-96
2022/11/05 07:00:48;;;;;;;13.90;6.40;;;5.70;99.90;;;;;;5070909;24;20051;-88
2022/11/05 07:11:17;;;;;;;;;;;;;;;;;;;;;
2022/11/05 07:18:06;;;;;;;15.32;6.13;;;5.70;99.90;;;;;;4797429;24;20090;-88
2022/11/05 07:23:56;;;;;;;12.23;5.75;;;5.80;99.90;;;;;;4756338;30;20112;-88
2022/11/05 07:26:22;;;;;;;14.23;5.35;;;5.90;99.90;;;;;;4738746;30;20064;-88
2022/11/05 07:28:48;;;;;;;13.90;5.90;;;6.00;99.90;;;;;;4740550;30;20508;-87
2022/11/05 07:31:18;;;;;;;11.82;5.75;;;5.90;99.90;;;;;;4726147;30;20088;-88
2022/11/05 07:34:07;;;;;;;15.52;6.18;;;6.20;99.90;;;;;;4718670;30;20056;-87
2022/11/05 07:37:02;;;;;;;11.40;6.10;;;6.90;99.90;;;;;;4743802;24;20062;-88
2022/11/05 07:40:44;;;;;;;10.82;6.10;;;6.00;99.90;;;;;;4718765;30;20062;-88
2022/11/05 07:52:15;;;;;;;13.18;5.95;;;6.10;99.90;;;;;;4724549;29;20051;-87
2022/11/05 08:04:02;;;;;;;13.57;5.97;;;6.60;99.90;;;;;;4755872;30;20047;-88
2022/11/05 08:07:06;;;;;;;14.57;6.35;;;6.40;99.90;;;;;;4766425;30;20056;-88
2022/11/05 08:09:38;;;;;;;15.50;7.38;;;6.40;99.90;;;;;;4768936;30;20051;-87
2022/11/05 08:12:32;;;;;;;15.93;6.28;;;6.50;99.90;;;;;;4773772;29;20068;-87
2022/11/05 08:15:07;;;;;;;11.93;6.57;;;7.10;99.90;;;;;;4752011;30;20051;-87
2022/11/05 08:17:33;;;;;;;16.55;6.55;;;6.50;99.90;;;;;;4765448;30;20067;-87
2022/11/05 08:19:58;;;;;;;14.43;6.72;;;6.70;99.90;;;;;;4751693;30;20055;-87
2022/11/05 08:22:30;;;;;;;16.02;6.63;;;7.20;99.90;;;;;;4751694;30;20079;-87
2022/11/05 08:24:58;;;;;;;13.05;6.97;;;6.70;99.90;;;;;;4751169;30;20051;-86
2022/11/05 08:27:36;;;;;;;15.00;6.93;;;6.60;99.90;;;;;;4752625;30;20057;-87
2022/11/05 08:30:09;;;;;;;15.98;6.25;;;6.80;99.90;;;;;;4752128;30;20047;-87
2022/11/05 08:32:35;;;;;;;15.93;5.22;;;7.10;99.90;;;;;;4751267;30;20067;-88
2022/11/05 08:35:10;;;;;;;9.80;5.25;;;7.10;99.90;;;;;;4751027;30;20056;-88
2022/11/05 08:37:37;;;;;;;12.85;5.55;;;7.30;99.90;;;;;;4751854;30;20048;-87
2022/11/05 08:40:12;;;;;;;8.70;4.78;;;7.20;99.90;;;;;;4751569;30;20199;-87
2022/11/05 08:42:47;;;;;;;13.93;5.15;;;8.20;99.90;;;;;;4765481;30;20058;-87
2022/11/05 08:45:13;;;;;;;9.75;5.03;;;7.30;99.90;;;;;;4765238;30;20052;-87
2022/11/05 08:47:45;;;;;;;11.48;5.43;;;8.20;99.90;;;;;;4765385;30;20162;-87
2022/11/05 08:50:27;;;;;;;10.27;4.60;;;7.70;99.90;;;;;;4751378;30;20059;-87
2022/11/05 08:55:57;;;;;;;11.82;4.78;;;7.90;99.90;;;;;;4751558;30;20055;-87
2022/11/05 08:58:25;;;;;;;9.23;4.55;;;8.30;99.90;;;;;;4751110;30;20124;-87
2022/11/05 09:00:51;;;;;;;9.18;4.28;;;8.40;99.90;;;;;;4747115;30;20064;-87
2022/11/05 09:03:17;;;;;;;13.98;4.03;;;8.70;99.90;;;;;;4747374;30;20072;-86
2022/11/05 09:05:43;;;;;;;9.93;3.75;;;8.70;99.90;;;;;;4762513;30;20056;-87
2022/11/05 09:08:12;;;;;;;9.65;3.60;;;8.60;99.90;;;;;;4762310;30;20052;-87
2022/11/05 09:10:38;;;;;;;7.70;3.30;;;8.80;99.90;;;;;;4762870;30;20060;-87
2022/11/05 09:13:04;;;;;;;9.35;3.72;;;8.90;99.90;;;;;;4747193;30;20125;-88
2022/11/05 09:15:37;;;;;;;9.68;3.83;;;9.40;99.90;;;;;;4748098;30;20060;-88
2022/11/05 09:18:13;;;;;;;10.50;3.65;;;9.10;99.90;;;;;;4746552;30;20060;-87
2022/11/05 09:20:45;;;;;;;13.10;3.20;;;10.20;99.90;;;;;;4746363;30;20502;-87
2022/11/05 09:23:14;;;;;;;10.05;3.10;;;9.50;99.90;;;;;;4747683;30;20382;-87
2022/11/05 09:25:47;;;;;;;10.63;3.25;;;9.50;99.90;;;;;;4762029;30;20060;-87
2022/11/05 09:28:20;;;;;;;9.43;4.20;;;9.50;99.90;;;;;;4747140;30;20103;-87
2022/11/05 09:30:50;;;;;;;9.32;2.92;;;9.70;99.90;;;;;;4747248;30;20048;-87
2022/11/05 09:38:47;;;;;;;10.88;2.38;;;9.90;99.90;;;;;;4790241;24;20051;-87
2022/11/05 09:42:04;;;;;;;9.48;2.47;;;10.10;99.90;;;;;;4779011;30;20055;-87
2022/11/05 09:47:43;;;;;;;8.15;2.70;;;10.40;99.90;;;;;;4861996;24;20063;-88
2022/11/05 10:02:22;;;;;;;6.22;2.00;;;10.90;99.90;;;;;;4751153;30;20056;-89
2022/11/05 10:05:28;;;;;;;13.43;2.63;;;10.90;99.90;;;;;;4767179;30;20054;-89
2022/11/05 10:30:48;;;;;;;9.32;2.33;;;11.40;99.90;;;;;;5121277;24;20030;-89
2022/11/05 10:33:20;;;;;;;8.63;2.38;;;11.40;99.90;;;;;;4762129;30;20502;-88
2022/11/05 10:36:14;;;;;;;9.32;2.70;;;11.40;99.90;;;;;;4762419;30;20109;-88
2022/11/05 10:39:26;;;;;;;10.10;2.70;;;11.40;99.90;;;;;;4748039;30;20087;-87
2022/11/05 10:42:27;;;;;;;10.30;2.90;;;11.50;99.90;;;;;;4760038;30;20071;-86
2022/11/05 10:45:16;;;;;;;9.10;2.22;;;11.50;99.90;;;;;;4762786;30;20055;-86
2022/11/05 10:48:25;;;;;;;10.40;2.40;;;11.50;99.90;;;;;;4776850;30;20102;-86
2022/11/05 10:50:53;;;;;;;6.63;2.30;;;11.30;99.90;;;;;;4763408;30;20063;-87
2022/11/05 10:53:43;;;;;;;8.80;2.55;;;11.20;99.90;;;;;;4780491;30;20148;-86
2022/11/05 10:56:57;;;;;;;5.40;2.30;;;11.30;99.90;;;;;;4779974;30;20055;-88
2022/11/05 10:59:35;;;;;;;7.43;2.10;;;10.90;99.90;;;;;;4749830;30;20142;-87
2022/11/05 11:02:36;;;;;;;8.70;2.60;;;11.30;99.90;;;;;;4758722;30;20058;-87
2022/11/05 11:05:02;;;;;;;6.05;2.22;;;11.30;99.90;;;;;;4754805;30;20060;-88
2022/11/05 11:07:28;;;;;;;11.05;2.40;;;11.60;99.90;;;;;;4753867;30;20138;-88
2022/11/05 11:09:54;;;;;;;7.07;2.25;;;11.40;99.90;;;;;;4754166;30;20139;-88
2022/11/05 11:12:34;;;;;;;8.70;2.08;;;11.50;99.90;;;;;;4752839;30;20059;-87
2022/11/05 11:15:01;;;;;;;7.93;1.70;;;11.50;99.90;;;;;;4752888;30;20139;-88
2022/11/05 11:17:38;;;;;;;7.85;1.83;;;11.60;99.90;;;;;;4752384;30;20047;-88
2022/11/05 11:20:19;;;;;;;9.07;2.00;;;11.70;99.90;;;;;;4753161;30;20139;-87
2022/11/05 11:23:02;;;;;;;5.82;2.17;;;11.90;99.90;;;;;;4752606;30;20050;-88
2022/11/05 11:25:30;;;;;;;;;;;12.00;99.90;;;;;;4767787;30;20135;-87
2022/11/05 11:28:02;;;;;;;8.35;2.40;;;11.40;99.90;;;;;;4753306;30;19926;-89
2022/11/05 13:00:42;;;;;;;5.45;1.00;;;11.00;99.90;;;;;;4787782;24;20055;-96
2022/11/05 13:07:42;;;;;;;;;;;;;;;;;;;;;
2022/11/05 13:10:37;;;;;;;6.93;1.52;;;10.80;99.90;;;;;;4703460;30;20057;-96
2022/11/05 13:13:25;;;;;;;3.17;1.30;;;10.80;99.90;;;;;;4721583;30;20060;-92
2022/11/05 13:16:18;;;;;;;12.95;1.30;;;10.70;99.90;;;;;;4756838;30;20461;-96
2022/11/05 13:18:49;;;;;;;4.97;1.15;;;10.50;99.90;;;;;;4739037;30;20055;-95
2022/11/05 13:21:17;;;;;;;5.28;1.17;;;10.60;99.90;;;;;;4739384;30;20039;-94
2022/11/05 13:23:49;;;;;;;6.18;1.50;;;10.50;99.90;;;;;;4738650;30;20063;-95
2022/11/05 13:40:10;;;;;;;4.55;0.88;;;10.60;99.90;;;;;;4715318;30;20465;-94
2022/11/05 13:42:48;;;;;;;5.82;0.98;;;10.60;99.90;;;;;;4733556;30;20062;-93
2022/11/05 13:45:54;;;;;;;4.88;1.05;;;10.70;99.90;;;;;;4752838;30;20052;-92
2022/11/05 13:48:25;;;;;;;5.68;1.48;;;11.20;99.90;;;;;;4752609;30;20163;-93
2022/11/05 13:55:35;;;;;;;;;;;;;;;;;;;;;
2022/11/05 14:39:37;;;;;;;11.85;3.33;;;10.60;99.90;;;;;;4671229;30;20065;-94
2022/11/05 14:42:28;;;;;;;13.73;3.20;;;10.60;99.90;;;;;;4703772;30;20061;-94
2022/11/05 14:49:18;;;;;;;;;;;;;;;;;;;;;
2022/11/05 14:56:40;;;;;;;8.40;3.10;;;10.50;99.90;;;;;;4717073;30;20130;-96
2022/11/05 14:59:30;;;;;;;10.73;3.08;;;10.60;99.90;;;;;;4695857;30;20073;-96
2022/11/05 15:06:36;;;;;;;10.95;3.40;;;10.70;99.90;;;;;;4751991;30;20098;-95
2022/11/05 15:13:38;;;;;;;9.55;3.17;;;10.30;99.90;;;;;;4769805;30;20477;-94
2022/11/05 15:16:43;;;;;;;14.02;3.72;;;10.50;99.90;;;;;;4758274;30;20576;-95
2022/11/05 15:19:32;;;;;;;14.05;3.83;;;10.90;99.90;;;;;;4740545;30;20071;-95
2022/11/05 15:22:11;;;;;;;7.55;3.03;;;10.40;99.90;;;;;;4738687;30;20074;-95
2022/11/05 15:24:41;;;;;;;10.93;3.42;;;10.40;99.90;;;;;;4739465;30;20056;-95
2022/11/05 15:27:18;;;;;;;9.13;2.92;;;10.40;99.90;;;;;;4739833;30;20060;-94
2022/11/05 15:29:47;;;;;;;8.30;3.00;;;10.40;99.90;;;;;;4739438;30;20051;-95
2022/11/05 15:32:30;;;;;;;12.52;2.92;;;10.30;99.90;;;;;;4739572;30;20063;-96
2022/11/05 15:34:56;;;;;;;10.52;3.10;;;10.40;99.90;;;;;;4739426;30;20063;-94
2022/11/05 15:37:25;;;;;;;18.85;3.67;;;10.40;99.90;;;;;;4741151;30;20167;-95
2022/11/05 15:39:53;;;;;;;7.28;3.00;;;10.30;99.90;;;;;;4740649;30;20063;-95
2022/11/05 15:42:25;;;;;;;12.27;3.50;;;10.30;99.90;;;;;;4739743;30;20067;-96
2022/11/05 15:45:25;;;;;;;8.20;3.20;;;10.30;99.90;;;;;;4754822;30;20060;-96
2022/11/05 15:47:50;;;;;;;10.57;3.40;;;10.00;99.90;;;;;;4721854;30;20044;-92
2022/11/05 15:50:16;;;;;;;9.23;3.67;;;10.20;99.90;;;;;;4722473;30;20056;-91
2022/11/05 15:52:52;;;;;;;9.50;3.53;;;10.10;99.90;;;;;;4721647;30;20135;-89
2022/11/05 15:55:23;;;;;;;7.35;2.90;;;10.10;99.90;;;;;;4721771;30;20052;-91
2022/11/05 15:57:58;;;;;;;10.45;3.58;;;10.10;99.90;;;;;;4725204;30;20098;-94
2022/11/05 16:00:27;;;;;;;8.50;3.22;;;10.00;99.90;;;;;;4722477;30;20095;-94
2022/11/05 16:02:58;;;;;;;9.25;3.00;;;10.00;99.90;;;;;;4720415;30;20127;-91
2022/11/05 16:05:32;;;;;;;14.95;4.07;;;10.00;99.90;;;;;;4720935;30;20792;-89
2022/11/05 16:08:33;;;;;;;;;;;;;;;;;;;;;
2022/11/05 16:11:20;;;;;;;11.35;3.88;;;9.80;99.90;;;;;;4745140;30;20118;-93
2022/11/05 16:14:11;;;;;;;11.13;3.50;;;9.80;99.90;;;;;;4757587;30;20099;-91
2022/11/05 16:16:40;;;;;;;12.10;3.83;;;10.50;99.90;;;;;;4739488;30;20043;-96
2022/11/05 16:19:44;;;;;;;9.57;4.28;;;9.60;99.90;;;;;;4753339;30;20051;-93
2022/11/05 16:22:47;;;;;;;11.80;3.90;;;9.70;99.90;;;;;;4753535;30;20056;-93
2022/11/05 16:25:44;;;;;;;11.95;4.07;;;9.70;99.90;;;;;;4725147;30;20052;-91
2022/11/05 16:29:11;;;;;;;13.05;4.53;;;9.60;99.90;;;;;;4767849;30;20052;-91
2022/11/05 16:35:28;;;;;;;8.23;3.95;;;9.40;99.90;;;;;;4748574;30;20108;-91
2022/11/05 16:41:23;;;;;;;12.85;4.93;;;9.40;99.90;;;;;;4713693;30;20052;-92
2022/11/05 16:51:13;;;;;;;10.85;4.60;;;9.30;99.90;;;;;;4698519;30;20060;-90
2022/11/05 16:53:42;;;;;;;12.80;4.82;;;9.40;99.90;;;;;;4734963;30;20466;-91
2022/11/05 16:56:14;;;;;;;14.63;5.38;;;9.40;99.90;;;;;;4735777;30;20501;-89
2022/11/05 16:58:41;;;;;;;10.85;5.50;;;9.40;99.90;;;;;;4763881;30;20101;-88
2022/11/05 17:01:19;;;;;;;11.82;5.28;;;9.50;99.90;;;;;;4750490;30;20063;-89
2022/11/05 17:03:50;;;;;;;11.90;5.18;;;9.40;99.90;;;;;;4736194;30;20039;-93
2022/11/05 17:06:19;;;;;;;9.55;4.68;;;9.30;99.90;;;;;;4737465;30;20052;-90
2022/11/05 17:08:54;;;;;;;13.68;5.22;;;10.10;99.90;;;;;;4735925;30;20129;-94
2022/11/05 17:11:20;;;;;;;11.20;4.85;;;9.30;99.90;;;;;;4737036;30;20512;-90
2022/11/05 17:13:46;;;;;;;9.88;5.20;;;9.20;99.90;;;;;;4755839;30;20066;-90
2022/11/05 17:16:15;;;;;;;12.75;5.90;;;9.20;99.90;;;;;;4753920;30;20055;-89
2022/11/05 17:18:41;;;;;;;15.52;6.28;;;9.20;99.90;;;;;;4745183;30;20051;-89
2022/11/05 17:21:15;;;;;;;14.23;5.80;;;9.20;99.90;;;;;;4754827;30;20056;-90
2022/11/05 17:23:41;;;;;;;11.18;5.50;;;9.10;99.90;;;;;;4737152;30;20043;-90
2022/11/05 17:26:10;;;;;;;11.95;5.90;;;9.20;99.90;;;;;;4737421;30;20443;-92
2022/11/05 17:28:43;;;;;;;15.88;6.45;;;9.20;99.90;;;;;;4737296;30;20051;-92
2022/11/05 17:31:12;;;;;;;10.55;5.57;;;9.50;99.90;;;;;;4737535;30;20123;-90
2022/11/05 17:33:38;;;;;;;13.23;6.47;;;9.20;99.90;;;;;;4736576;30;20452;-90
2022/11/05 17:36:18;;;;;;;;;;;;;;;;;;;;;
2022/11/05 17:39:04;;;;;;;14.10;5.75;;;9.20;99.90;;;;;;4749301;30;20412;-89
2022/11/05 17:41:37;;;;;;;15.30;6.50;;;9.20;99.90;;;;;;4736062;30;20116;-90
2022/11/05 17:45:36;;;;;;;14.02;6.45;;;9.20;99.90;;;;;;4734878;30;20051;-89
2022/11/05 17:47:46;;;;;;;15.90;6.10;;;9.20;99.90;;;;;;4750527;30;20059;-92
2022/11/05 17:50:13;;;;;;;13.27;6.30;;;9.20;99.90;;;;;;4751289;30;20084;-91
2022/11/05 17:52:43;;;;;;;14.93;6.53;;;9.40;99.90;;;;;;4736669;30;20261;-89
2022/11/05 17:55:15;;;;;;;14.75;7.05;;;9.20;99.90;;;;;;4736842;30;20091;-90
2022/11/05 17:57:44;;;;;;;16.77;6.65;;;9.20;99.90;;;;;;4729212;30;20417;-94
2022/11/05 18:00:40;;;;;;;13.55;7.35;;;8.90;99.90;;;;;;4751399;30;20565;-91
2022/11/05 18:03:06;;;;;;;12.85;7.05;;;9.30;99.90;;;;;;4732568;30;20060;-91
2022/11/05 18:05:50;;;;;;;;;;;;;;;;;;;;;
2022/11/05 18:08:16;;;;;;;14.13;7.28;;;9.30;99.90;;;;;;4746765;30;20102;-90
2022/11/05 18:14:19;;;;;;;13.85;7.32;;;9.30;99.90;;;;;;4713505;30;20060;-91
2022/11/05 18:16:58;;;;;;;;;;;;;;;;;;;;;
2022/11/05 18:19:46;;;;;;;11.65;6.80;;;9.40;99.90;;;;;;4746701;30;20492;-90
2022/11/05 18:22:22;;;;;;;;;;;;;;;;;;;;;
2022/11/05 18:24:50;;;;;;;13.60;7.13;;;9.40;99.90;;;;;;4747302;30;20508;-91
2022/11/05 18:27:18;;;;;;;12.60;7.40;;;9.20;99.90;;;;;;4747284;30;20051;-88
2022/11/05 18:29:46;;;;;;;15.07;7.10;;;9.40;99.90;;;;;;4738589;30;20047;-89
2022/11/05 18:32:22;;;;;;;12.85;6.93;;;9.40;99.90;;;;;;4744998;30;20050;-90
2022/11/05 18:34:51;;;;;;;13.25;7.28;;;9.40;99.90;;;;;;4740830;30;20047;-90
2022/11/05 18:37:27;;;;;;;;;;;;;;;;;;;;;
2022/11/05 18:39:55;;;;;;;20.88;7.60;;;9.50;99.90;;;;;;4752358;30;20052;-88
2022/11/05 18:42:24;;;;;;;15.20;6.80;;;9.50;99.90;;;;;;4743675;30;20105;-89
2022/11/05 18:44:55;;;;;;;20.30;7.90;;;9.60;99.90;;;;;;4733865;30;20052;-90
2022/11/05 18:47:39;;;;;;;12.38;6.53;;;9.50;99.90;;;;;;4732007;30;20149;-90
2022/11/05 18:50:14;;;;;;;14.65;6.70;;;9.50;99.90;;;;;;4730741;30;20048;-91
2022/11/05 18:52:51;;;;;;;17.02;7.05;;;9.50;99.90;;;;;;4747379;30;20389;-90
2022/11/05 18:55:25;;;;;;;14.93;7.18;;;9.50;99.90;;;;;;4739917;30;20056;-90
2022/11/05 18:58:03;;;;;;;14.10;6.88;;;9.50;99.90;;;;;;4735639;30;20044;-89
2022/11/05 19:00:54;;;;;;;15.13;6.97;;;9.50;99.90;;;;;;4731857;30;20095;-90
2022/11/05 19:03:53;;;;;;;;;;;;;;;;;;;;;
2022/11/05 19:06:49;;;;;;;15.60;7.07;;;9.50;99.90;;;;;;4720029;30;20483;-91
2022/11/05 19:10:01;;;;;;;16.58;7.38;;;9.50;99.90;;;;;;4733513;30;20203;-89
2022/11/05 19:13:13;;;;;;;13.80;6.75;;;10.10;99.90;;;;;;4715066;30;20048;-90
2022/11/05 19:16:05;;;;;;;;;;;;;;;;;;;;;
2022/11/05 19:18:41;;;;;;;15.73;7.00;;;9.50;99.90;;;;;;4725038;30;20056;-90
2022/11/05 19:21:23;;;;;;;13.20;5.82;;;9.50;99.90;;;;;;4731087;30;20070;-92
2022/11/05 19:23:52;;;;;;;13.05;6.28;;;9.50;99.90;;;;;;4717651;30;20162;-89
2022/11/05 19:26:33;;;;;;;;;;;;;;;;;;;;;
2022/11/05 19:29:51;;;;;;;15.73;6.60;;;9.60;99.90;;;;;;4736225;30;20497;-90
2022/11/05 19:35:55;;;;;;;;;;;;;;;;;;;;;
2022/11/05 19:39:05;;;;;;;;;;;;;;;;;;;;;
2022/11/05 19:42:00;;;;;;;10.57;5.68;;;9.60;99.90;;;;;;4726482;30;20048;-91
2022/11/05 19:44:25;;;;;;;11.88;5.95;;;9.60;99.90;;;;;;4732186;30;20447;-90
2022/11/05 19:46:58;;;;;;;13.05;6.15;;;9.60;99.90;;;;;;4716255;30;20087;-90
2022/11/05 19:49:27;;;;;;;15.73;6.20;;;9.60;99.90;;;;;;4718746;30;20079;-90
2022/11/05 19:52:15;;;;;;;9.98;5.82;;;9.60;99.90;;;;;;4732094;30;20106;-91
2022/11/05 19:54:57;;;;;;;16.92;6.38;;;9.60;99.90;;;;;;4730609;30;20052;-91
2022/11/05 19:57:48;;;;;;;12.38;6.20;;;9.60;99.90;;;;;;4710678;30;20048;-91
2022/11/05 20:00:23;;;;;;;10.60;5.38;;;9.70;99.90;;;;;;4718790;30;20055;-91
2022/11/05 20:03:17;;;;;;;14.63;5.70;;;9.60;99.90;;;;;;4718353;30;20048;-91
2022/11/05 20:06:02;;;;;;;;;;;9.50;99.90;;;;;;4732265;30;20128;-91
2022/11/05 20:08:39;;;;;;;14.00;6.40;;;9.60;99.90;;;;;;4728198;30;19973;-91
2022/11/05 20:11:12;;;;;;;13.40;6.15;;;9.00;99.90;;;;;;4726485;30;20103;-91
2022/11/05 20:16:31;;;;;;;10.73;5.30;;;9.60;99.90;;;;;;4751195;30;20120;-89
2022/11/05 20:19:00;;;;;;;18.48;6.28;;;9.60;99.90;;;;;;4734427;30;20103;-90
2022/11/05 20:21:43;;;;;;;13.93;5.90;;;9.60;99.90;;;;;;4747080;30;20135;-91
2022/11/05 20:24:41;;;;;;;11.60;5.60;;;9.60;99.90;;;;;;4735006;30;20130;-92
2022/11/05 20:27:30;;;;;;;12.90;5.60;;;9.70;99.90;;;;;;4735001;30;20059;-90
2022/11/05 20:30:29;;;;;;;;;;;;;;;;;;;;;
2022/11/05 20:40:49;;;;;;;;;;;;;;;;;;;;;
2022/11/05 20:58:01;;;;;;;;;;;;;;;;;;;;;
2022/11/05 21:03:45;;;;;;;11.57;5.05;;;9.40;99.90;;;;;;4700045;30;20120;-90
2022/11/05 21:07:44;;;;;;;10.63;5.50;;;9.80;99.90;;;;;;4737505;30;20547;-94
2022/11/05 21:20:38;;;;;;;;;;;;;;;;;;;;;
2022/11/05 21:23:51;;;;;;;10.45;4.70;;;9.80;99.90;;;;;;4698702;30;20265;-96
2022/11/05 21:26:34;;;;;;;;;;;;;;;;;;;;;
2022/11/05 21:29:15;;;;;;;13.07;5.63;;;9.90;99.90;;;;;;4743373;30;20052;-95
2022/11/05 21:36:26;;;;;;;12.73;5.68;;;10.00;99.90;;;;;;4707295;30;20052;-96
2022/11/05 21:39:45;;;;;;;;;;;;;;;;;;;;;
2022/11/05 21:42:46;;;;;;;9.85;4.45;;;9.90;99.90;;;;;;4699251;30;20086;-93
2022/11/05 21:45:36;;;;;;;15.55;5.43;;;9.90;99.90;;;;;;4734964;30;20139;-95
2022/11/05 21:48:32;;;;;;;;;;;;;;;;;;;;;
2022/11/05 22:00:48;;;;;;;;;;;;;;;;;;;;;
2022/11/05 22:07:39;;;;;;;13.15;4.30;;;10.00;99.90;;;;;;4707890;30;20070;-96
2022/11/05 22:10:19;;;;;;;;;;;;;;;;;;;;;
2022/11/05 22:17:26;;;;;;;9.75;4.22;;;10.00;99.90;;;;;;4697863;30;20147;-96
2022/11/05 22:21:14;;;;;;;;;;;;;;;;;;;;;
2022/11/05 22:23:59;;;;;;;8.27;4.53;;;10.10;99.90;;;;;;4687612;30;20079;-96
2022/11/05 22:29:32;;;;;;;11.60;4.25;;;10.00;99.90;;;;;;4734282;30;20057;-96
2022/11/05 22:32:19;;;;;;;10.60;4.05;;;10.00;99.90;;;;;;4730775;30;20740;-95
2022/11/05 22:35:06;;;;;;;14.23;4.88;;;10.00;99.90;;;;;;4733000;30;20066;-96
2022/11/05 22:38:33;;;;;;;13.25;4.25;;;10.00;99.90;;;;;;4733255;30;20045;-96
2022/11/05 22:41:37;;;;;;;;;;;;;;;;;;;;;
2022/11/05 22:44:34;;;;;;;11.18;4.97;;;9.90;99.90;;;;;;4665847;30;20058;-96
2022/11/05 22:47:17;;;;;;;;;;;;;;;;;;;;;
2022/11/05 22:50:34;;;;;;;;;;;;;;;;;;;;;
2022/11/05 22:53:22;;;;;;;;;;;;;;;;;;;;;
2022/11/05 22:56:04;;;;;;;;;;;;;;;;;;;;;
2022/11/05 22:59:24;;;;;;;;;;;;;;;;;;;;;
2022/11/05 23:02:03;;;;;;;;;;;;;;;;;;;;;
2022/11/05 23:05:45;;;;;;;11.55;4.22;;;10.00;99.90;;;;;;4736788;30;20101;-96
2022/11/05 23:13:55;;;;;;;11.25;4.07;;;10.00;99.90;;;;;;4723731;30;20056;-95
2022/11/05 23:25:54;;;;;;;11.05;4.30;;;10.10;99.90;;;;;;4753236;30;20060;-96
2022/11/05 23:28:43;;;;;;;;;;;;;;;;;;;;;
2022/11/05 23:34:37;;;;;;;7.72;3.72;;;10.10;99.90;;;;;;4754495;30;20059;-95
2022/11/05 23:48:57;;;;;;;;;;;;;;;;;;;;;
2022/11/05 23:52:25;;;;;;;9.93;4.63;;;10.10;99.90;;;;;;4752610;30;20488;-95
2022/11/05 23:55:47;;;;;;;;;;;;;;;;;;;;;
